Latest Weather Observations for Cape Grim

IDT60801

Issued at 11:31 pm EDT Friday 19 December 2014 (issued every 30 minutes, with the page automatically refreshed every 10 minutes)

About weather observations | Map of weather stations | Latest weather observations for TAS | Other Formats
Station Details ID: 091331 Name: CAPE GRIM Lat: -40.68 Lon: 144.69 Height: 86.0 m
Data from the previous 72 hours. | See also: Recent months at Cape Grim
Date/Time
EDT
Temp
°C
App
Temp
°C
Dew
Point
Rel
Hum
%
Delta-T
°C
Wind Press
QNH
hPa
Press
MSL
hPa
Rain
since 9 am
mm
Dir
 
Spd
km/h
Gust
km/h
Spd
kts
Gust
kts
19/11:30pm 14.2 9.0 10.4 78 2.0 W 28 39 15 21 1016.8 1016.8 0.0
19/11:00pm 14.1 9.6 9.9 76 2.2 W 24 35 13 19 1017.0 1017.0 0.0
19/10:30pm 14.0 9.0 9.6 75 2.3 W 26 37 14 20 1017.3 1017.3 0.0
19/10:00pm 13.8 8.4 9.5 75 2.2 W 28 39 15 21 1017.3 1017.3 0.0
19/09:30pm 13.6 8.9 9.3 75 2.2 W 24 39 13 21 1017.3 1017.3 0.0
19/09:00pm 13.8 8.9 8.4 70 2.7 W 24 39 13 21 1017.2 1017.2 0.0
19/08:30pm 13.8 9.3 8.6 71 2.6 W 22 37 12 20 1017.2 1017.2 0.0
19/08:00pm 13.7 9.7 9.2 74 2.3 W 20 28 11 15 1017.1 1017.1 0.0
19/07:30pm 13.5 9.5 9.2 75 2.2 WSW 20 37 11 20 1016.8 1016.8 0.0
19/07:00pm 13.0 7.4 8.9 76 2.1 SW 28 37 15 20 1016.7 1016.7 0.0
19/06:30pm 12.8 8.3 8.5 75 2.1 W 22 33 12 18 1016.4 1016.4 0.0
19/06:08pm 13.2 7.4 7.9 70 2.6 W 28 50 15 27 1016.4 1016.4 0.0
19/06:00pm 13.8 8.9 8.4 70 2.7 W 24 35 13 19 1016.2 1016.3 0.0
19/05:30pm 13.8 8.8 8.0 68 2.9 W 24 35 13 19 1016.4 1016.4 0.0
19/05:00pm 14.1 9.3 7.4 64 3.3 WSW 22 35 12 19 1016.3 1016.3 0.0
19/04:30pm 15.0 10.1 6.8 58 4.0 WSW 22 39 12 21 1016.4 1016.4 0.0
19/04:00pm 14.5 9.9 6.6 59 3.8 W 20 33 11 18 1016.5 1016.5 0.0
19/03:30pm 14.7 9.8 7.0 60 3.8 WSW 22 37 12 20 1016.3 1016.3 0.0
19/03:00pm 14.8 9.9 6.9 59 3.9 WSW 22 41 12 22 1016.4 1016.4 0.0
19/02:30pm 14.6 10.0 6.7 59 3.9 WSW 20 35 11 19 1016.2 1016.2 0.0
19/02:00pm 14.5 10.0 7.1 61 3.6 WSW 20 33 11 18 1016.2 1016.2 0.0
19/01:30pm 14.5 9.9 6.6 59 3.8 W 20 32 11 17 1016.2 1016.2 0.0
19/01:00pm 14.6 10.3 6.9 60 3.8 WSW 19 32 10 17 1016.1 1016.1 0.0
19/12:30pm 14.5 9.5 6.6 59 3.8 WSW 22 35 12 19 1015.9 1015.9 0.0
19/12:00pm 13.9 7.8 6.5 61 3.6 SW 28 39 15 21 1015.8 1015.8 0.0
19/11:30am 14.1 8.7 6.2 59 3.8 SW 24 37 13 20 1015.8 1015.8 0.0
19/11:00am 13.8 8.3 5.9 59 3.8 SW 24 37 13 20 1015.7 1015.7 0.0
19/10:30am 14.5 7.6 6.6 59 3.8 SW 32 39 17 21 1015.6 1015.6 0.0
19/10:00am 14.1 7.2 6.5 60 3.7 SW 32 41 17 22 1015.3 1015.3 0.0
19/09:30am 13.7 7.0 5.8 59 3.8 SW 30 39 16 21 1015.2 1015.2 0.0
19/08:30am 13.2 5.9 5.4 59 3.7 SW 33 41 18 22 1014.7 1014.7 4.4
19/08:00am 12.8 4.9 6.2 64 3.1 SW 37 48 20 26 1014.3 1014.3 4.4
19/07:30am 12.6 4.7 4.6 58 3.7 SW 35 44 19 24 1013.8 1013.8 4.4
19/07:00am 12.3 3.8 5.2 62 3.3 SW 39 48 21 26 1013.4 1013.4 4.4
19/06:30am 12.2 4.0 6.5 68 2.7 SW 39 48 21 26 1013.1 1013.0 4.4
19/05:30am 11.8 4.0 6.5 70 2.5 SW 37 50 20 27 1012.4 1012.3 4.4
19/05:00am 11.7 4.6 8.2 79 1.7 SW 35 48 19 26 1012.0 1011.9 4.4
19/04:36am 12.1 4.1 7.6 74 2.2 SW 39 63 21 34 1011.4 1011.3 4.2
19/04:30am 12.2 4.5 7.3 72 2.4 SW 37 46 20 25 1011.5 1011.4 4.2
19/04:00am 12.0 3.8 6.7 70 2.5 SW 39 50 21 27 1011.4 1011.3 4.2
19/03:30am 12.3 3.4 7.0 70 2.6 SW 43 52 23 28 1011.1 1011.0 4.2
19/03:00am 12.3 3.8 7.0 70 2.6 SW 41 50 22 27 1010.9 1010.8 4.2
19/02:30am 12.4 5.2 7.7 73 2.3 WSW 35 50 19 27 1010.7 1010.6 4.2
19/02:00am 12.7 6.7 7.0 68 2.8 WSW 28 50 15 27 1010.6 1010.5 4.2
19/01:31am 12.8 5.4 6.8 67 2.9 SW 35 54 19 29 1010.6 1010.5 4.2
19/01:30am 12.8 5.1 7.0 68 2.8 SW 37 54 20 29 1010.6 1010.5 4.2
19/01:04am 12.6 5.9 7.3 70 2.6 SW 32 50 17 27 1010.5 1010.4 4.2
19/01:00am 12.6 5.9 7.3 70 2.6 SW 32 44 17 24 1010.5 1010.4 4.2
19/12:30am 12.7 5.9 6.7 67 2.9 SW 32 50 17 27 1010.3 1010.2 4.2
 
Date/Time
EDT
Temp
°C
App
Temp
°C
Dew
Point
Rel
Hum
%
Delta-T
°C
Wind Press
QNH
hPa
Press
MSL
hPa
Rain
since 9 am
mm
Dir
 
Spd
km/h
Gust
km/h
Spd
kts
Gust
kts
18/11:30pm 13.0 6.4 7.9 71 2.5 WSW 32 63 17 34 1010.0 1009.9 4.2
18/11:00pm 13.3 7.4 7.3 67 2.9 WSW 28 54 15 29 1009.9 1009.8 4.2
18/10:31pm 13.5 7.7 7.9 69 2.8 WSW 28 46 15 25 1009.8 1009.7 4.2
18/10:30pm 13.5 8.1 7.9 69 2.8 WSW 26 46 14 25 1009.8 1009.7 4.2
18/10:29pm 13.5 7.6 7.7 68 2.9 WSW 28 46 15 25 1009.8 1009.7 4.2
18/10:00pm 13.3 7.9 8.0 70 2.6 WSW 26 48 14 26 1009.7 1009.6 4.2
18/09:30pm 13.1 6.6 8.0 71 2.5 SW 32 50 17 27 1009.5 1009.4 4.2
18/09:14pm 13.0 6.8 7.9 71 2.5 SW 30 50 16 27 1009.3 1009.2 4.2
18/09:00pm 12.8 6.0 7.7 71 2.5 SW 33 46 18 25 1009.2 1009.1 4.2
18/08:30pm 12.4 4.7 8.5 77 1.9 SW 39 46 21 25 1008.8 1008.7 4.2
18/08:00pm 13.1 5.5 9.2 77 2.0 SW 39 56 21 30 1008.2 1008.1 4.0
18/07:30pm 14.1 8.6 9.1 72 2.6 SW 28 50 15 27 1007.7 1007.6 4.0
18/07:16pm 14.0 8.5 9.0 72 2.5 SW 28 46 15 25 1007.5 1007.4 4.0
18/07:00pm 13.8 6.8 8.6 71 2.6 SW 35 52 19 28 1007.2 1007.1 4.0
18/06:52pm 13.8 7.9 7.6 66 3.1 WSW 28 46 15 25 1006.9 1006.8 4.0
18/06:30pm 14.5 9.3 8.9 69 2.9 WSW 26 48 14 26 1006.5 1006.4 4.0
18/06:00pm 14.9 10.6 9.5 70 2.8 WSW 22 39 12 21 1006.0 1005.9 4.0
18/05:30pm 14.2 8.7 9.0 71 2.7 WSW 28 56 15 30 1005.4 1005.4 4.0
18/05:25pm 14.8 9.5 10.0 73 2.5 WSW 28 54 15 29 1005.3 1005.3 4.0
18/05:00pm 14.7 10.1 11.1 79 1.9 W 26 33 14 18 1005.4 1005.4 4.0
18/04:30pm 13.8 9.5 10.8 82 1.6 W 24 32 13 17 1005.0 1005.0 4.0
18/04:00pm 12.5 7.2 9.7 83 1.4 W 28 41 15 22 1004.8 1004.8 4.0
18/03:30pm 14.3 8.8 10.7 79 1.9 W 30 41 16 22 1004.5 1004.5 3.8
18/03:00pm 14.9 10.6 11.9 82 1.6 WNW 26 35 14 19 1004.2 1004.2 3.8
18/02:30pm 12.8 8.9 10.9 88 1.0 NW 22 30 12 16 1003.9 1003.9 3.8
18/02:00pm 12.0 5.9 9.7 86 1.2 WNW 32 43 17 23 1004.2 1004.2 3.2
18/01:30pm 12.4 4.4 10.3 87 1.1 WNW 43 52 23 28 1004.1 1004.1 1.8
18/01:11pm 13.0 5.6 11.2 89 1.0 NW 41 59 22 32 1004.2 1004.2 1.0
18/01:00pm 13.0 5.2 11.1 88 1.0 NW 43 52 23 28 1004.2 1004.2 0.8
18/12:30pm 14.0 7.1 10.2 78 2.0 NW 37 56 20 30 1003.9 1003.9 0.0
18/12:00pm 15.7 8.7 10.0 69 3.0 NNW 37 46 20 25 1003.7 1003.7 0.0
18/11:30am 16.3 8.4 9.5 64 3.5 NNW 41 50 22 27 1003.5 1003.4 0.0
18/11:00am 16.0 9.4 10.1 68 3.1 NNW 35 46 19 25 1003.4 1003.3 0.0
18/10:30am 16.2 9.3 10.3 68 3.1 NNW 37 48 20 26 1003.8 1003.8 0.0
18/10:00am 16.4 9.4 10.0 66 3.4 NNW 37 50 20 27 1003.9 1003.9 0.0
18/09:30am 16.2 8.8 9.8 66 3.4 N 39 52 21 28 1003.9 1003.9 0.0
18/09:00am 15.8 8.7 9.7 67 3.2 N 37 48 20 26 1004.1 1004.1 0.0
18/08:30am 15.8 9.2 9.9 68 3.1 N 35 43 19 23 1004.0 1004.0 0.0
18/08:00am 15.6 8.9 9.7 68 3.1 N 35 44 19 24 1003.8 1003.8 0.0
18/07:30am 15.2 8.0 9.3 68 3.0 N 37 44 20 24 1004.0 1004.0 0.0
18/07:00am 14.5 9.0 9.1 70 2.8 N 28 37 15 20 1003.9 1003.9 0.0
18/06:30am 14.0 7.5 9.0 72 2.5 N 33 41 18 22 1003.7 1003.7 0.0
18/06:00am 13.9 7.6 8.9 72 2.6 N 32 43 17 23 1003.8 1003.8 0.0
18/05:30am 13.9 7.4 8.9 72 2.5 N 33 41 18 22 1003.9 1003.9 0.0
18/05:00am 13.9 7.9 8.7 71 2.6 N 30 39 16 21 1004.0 1004.0 0.0
18/04:30am 13.9 7.5 8.5 70 2.7 N 32 39 17 21 1004.1 1004.1 0.0
18/04:00am 13.8 7.6 8.0 68 2.9 NNW 30 39 16 21 1004.4 1004.4 0.0
18/03:30am 13.9 7.9 8.5 70 2.7 NNW 30 39 16 21 1004.8 1004.8 0.0
18/03:00am 13.8 7.7 8.2 69 2.8 NNW 30 39 16 21 1005.1 1005.1 0.0
18/02:30am 13.6 8.2 7.8 68 2.9 NNW 26 32 14 17 1005.2 1005.2 0.0
18/02:00am 13.5 7.6 7.7 68 2.9 NNW 28 35 15 19 1005.6 1005.6 0.0
18/01:30am 13.4 8.5 8.5 72 2.5 NNW 24 32 13 17 1005.8 1005.7 0.0
18/01:00am 13.2 8.1 7.6 69 2.8 NNW 24 30 13 16 1005.9 1005.8 0.0
18/12:30am 13.1 9.0 7.8 70 2.6 NNW 19 24 10 13 1006.1 1006.0 0.0
18/12:00am 12.9 8.7 7.6 70 2.6 NNW 19 24 10 13 1006.2 1006.1 0.0
 
Date/Time
EDT
Temp
°C
App
Temp
°C
Dew
Point
Rel
Hum
%
Delta-T
°C
Wind Press
QNH
hPa
Press
MSL
hPa
Rain
since 9 am
mm
Dir
 
Spd
km/h
Gust
km/h
Spd
kts
Gust
kts
17/11:30pm 13.1 8.8 7.8 70 2.6 NNW 20 30 11 16 1006.6 1006.5 0.0
17/11:00pm 13.3 9.0 7.7 69 2.8 NW 20 26 11 14 1007.0 1006.9 0.0
17/10:30pm 13.1 8.3 7.3 68 2.8 NW 22 28 12 15 1007.3 1007.2 0.0
17/10:00pm 13.1 8.7 7.5 69 2.8 NW 20 30 11 16 1007.5 1007.4 0.0
17/09:30pm 13.1 8.7 7.3 68 2.8 NW 20 26 11 14 1007.6 1007.5 0.0
17/09:00pm 13.1 9.2 7.3 68 2.8 NW 17 24 9 13 1007.5 1007.4 0.0
17/08:30pm 13.3 8.9 6.4 63 3.3 NW 19 24 10 13 1007.6 1007.5 0.0
17/08:00pm 14.1 9.7 6.5 60 3.7 WNW 19 24 10 13 1007.6 1007.5 0.0
17/07:30pm 14.7 9.7 6.5 58 4.0 WNW 22 26 12 14 1007.4 1007.3 0.0
17/07:00pm 14.9 10.3 6.7 58 4.0 WNW 20 28 11 15 1007.3 1007.2 0.0
17/06:30pm 15.7 10.3 6.4 54 4.5 WNW 24 32 13 17 1007.2 1007.1 0.0
17/06:00pm 15.7 10.8 7.0 56 4.3 W 22 32 12 17 1007.2 1007.1 0.0
17/05:30pm 15.5 10.3 7.3 58 4.1 W 24 32 13 17 1007.3 1007.2 0.0
17/05:00pm 15.3 10.0 6.6 56 4.3 W 24 32 13 17 1007.4 1007.3 0.0
17/04:30pm 16.0 10.6 6.4 53 4.7 W 24 33 13 18 1007.5 1007.4 0.0
17/04:00pm 15.5 11.8 8.0 61 3.8 W 17 26 9 14 1007.5 1007.4 0.0
17/03:30pm 15.5 11.9 8.5 63 3.6 W 17 24 9 13 1007.6 1007.5 0.0
17/03:00pm 15.1 11.3 7.4 60 3.8 W 17 24 9 13 1007.6 1007.5 0.0
17/02:30pm 15.2 11.1 8.0 62 3.6 WSW 19 32 10 17 1007.7 1007.6 0.0
17/02:00pm 14.8 9.3 6.1 56 4.2 W 24 35 13 19 1007.6 1007.5 0.0
17/01:30pm 15.3 11.0 7.8 61 3.8 W 20 32 11 17 1007.7 1007.6 0.0
17/01:00pm 14.5 10.0 7.1 61 3.6 W 20 35 11 19 1007.7 1007.6 0.0
17/12:30pm 14.8 10.6 8.3 65 3.3 W 20 32 11 17 1007.5 1007.4 0.0
17/12:00pm 14.4 9.1 6.7 60 3.8 W 24 39 13 21 1007.4 1007.3 0.0
17/11:30am 14.2 9.5 6.1 58 3.9 W 20 33 11 18 1007.1 1007.0 0.0
17/11:00am 14.3 8.7 5.4 55 4.2 W 24 37 13 20 1006.9 1006.8 0.0
17/10:30am 14.3 8.4 5.7 56 4.1 W 26 39 14 21 1006.7 1006.6 0.0
17/10:00am 13.6 8.9 6.2 61 3.6 W 20 35 11 19 1006.5 1006.4 0.0
17/09:30am 13.4 7.5 5.6 59 3.7 W 26 43 14 23 1006.4 1006.3 0.0
17/09:00am 13.4 8.0 6.3 62 3.4 WSW 24 39 13 21 1006.1 1006.0 3.8
17/08:30am 13.1 7.6 6.0 62 3.4 WSW 24 39 13 21 1005.5 1005.5 3.8
17/08:07am 13.1 6.8 5.5 60 3.6 WSW 28 46 15 25 1005.2 1005.2 3.8
17/08:00am 13.0 6.2 4.9 58 3.8 WSW 30 46 16 25 1005.0 1005.0 3.8
17/07:35am 12.9 6.1 5.3 60 3.6 SW 30 48 16 26 1004.7 1004.7 3.8
17/07:30am 13.0 5.8 5.2 59 3.6 WSW 32 48 17 26 1004.6 1004.6 3.8
17/07:00am 12.7 4.9 4.9 59 3.6 WSW 35 61 19 33 1004.1 1004.1 3.8
17/06:30am 12.4 6.1 5.6 63 3.2 WSW 28 50 15 27 1003.7 1003.7 3.8
17/06:00am 12.2 5.1 5.6 64 3.1 SW 32 54 17 29 1003.2 1003.1 3.8
17/05:30am 12.3 6.0 7.2 71 2.5 WSW 30 48 16 26 1002.9 1002.8 3.8
17/05:22am 12.0 5.2 6.7 70 2.5 WSW 32 48 17 26 1002.8 1002.7 3.8
17/05:00am 11.4 1.6 6.9 74 2.2 SW 48 61 26 33 1002.5 1002.4 3.8
17/04:39am 12.0 5.0 6.9 71 2.4 WSW 33 52 18 28 1002.2 1002.1 3.8
17/04:30am 11.9 4.6 7.0 72 2.4 SW 35 50 19 27 1002.0 1001.9 3.8
17/04:00am 11.6 3.4 6.5 71 2.4 SW 39 63 21 34 1001.8 1001.7 3.8
17/03:30am 12.3 3.2 6.6 68 2.7 SW 44 63 24 34 1001.4 1001.3 3.6
17/03:00am 11.9 2.1 7.0 72 2.4 SW 48 74 26 40 1001.1 1001.0 3.6
17/02:30am 13.0 2.9 7.5 69 2.7 SW 50 70 27 38 1000.8 1000.7 3.6
17/02:00am 12.8 4.3 6.8 67 2.9 SW 41 61 22 33 1000.5 1000.4 3.6
17/01:30am 12.5 2.5 7.8 73 2.3 SW 50 72 27 39 1000.4 1000.3 3.6
17/01:28am 12.7 3.1 8.0 73 2.3 SW 48 72 26 39 1000.4 1000.3 3.6
17/01:00am 12.8 6.0 7.5 70 2.6 WSW 33 61 18 33 1000.2 1000.1 3.6
17/12:30am 12.7 5.7 8.4 75 2.1 WSW 35 65 19 35 1000.1 1000.0 3.6
17/12:00am 13.1 5.4 6.9 66 3.0 WSW 37 61 20 33 999.7 999.6 3.4

Other Formats:

Comma delimited format used in spreadsheet applications
http://www.bom.gov.au/fwo/IDT60801/IDT60801.95954.axf

JavaScript Object Notation format (JSON) in row-major order
http://www.bom.gov.au/fwo/IDT60801/IDT60801.95954.json